createdAt,value
2019-02-27T00:03:30.470Z,1.60
2019-02-27T00:08:36.630Z,1.60
2019-02-27T00:13:42.755Z,1.60
2019-02-27T00:18:48.774Z,1.70
2019-02-27T00:23:56.863Z,1.60
2019-02-27T00:29:02.776Z,1.40
2019-02-27T00:34:08.913Z,1.40
2019-02-27T00:39:14.996Z,1.40
2019-02-27T00:44:21.419Z,1.30
2019-02-27T00:49:29.827Z,1.30
2019-02-27T00:54:35.219Z,1.30
2019-02-27T00:59:41.376Z,1.20
2019-02-27T01:04:47.524Z,1.10
2019-02-27T01:09:53.668Z,1.10
2019-02-27T01:14:59.699Z,1.10
2019-02-27T01:20:06.212Z,1.10
2019-02-27T01:25:12.476Z,1.00
2019-02-27T01:30:23.930Z,1.00
2019-02-27T01:35:27.280Z,1.10
2019-02-27T01:40:33.371Z,1.10
2019-02-27T01:45:39.428Z,1.00
2019-02-27T01:50:45.623Z,0.90
2019-02-27T01:55:51.694Z,0.90
2019-02-27T02:00:57.738Z,0.90
2019-02-27T02:06:04.416Z,0.90
2019-02-27T02:11:10.920Z,0.90
2019-02-27T02:16:34.945Z,0.90
2019-02-27T02:22:24.869Z,0.90
2019-02-27T02:28:32.556Z,0.90
2019-02-27T02:34:25.989Z,0.80
2019-02-27T02:39:54.320Z,0.80
2019-02-27T02:45:09.030Z,0.90
2019-02-27T02:50:53.965Z,0.80
2019-02-27T02:56:38.275Z,0.80
2019-02-27T03:02:23.732Z,0.80
2019-02-27T03:08:07.919Z,0.70
2019-02-27T03:13:31.726Z,0.60
2019-02-27T03:19:11.877Z,0.60
2019-02-27T03:24:49.198Z,0.60
2019-02-27T03:30:14.255Z,0.60
2019-02-27T03:36:04.440Z,0.60
2019-02-27T03:41:46.515Z,0.60
2019-02-27T03:47:31.371Z,0.60
2019-02-27T03:53:10.889Z,0.60
2019-02-27T03:58:42.462Z,0.50
2019-02-27T04:04:02.892Z,0.50
2019-02-27T04:09:10.136Z,0.40
2019-02-27T04:14:29.980Z,0.40
2019-02-27T04:19:39.288Z,0.40
2019-02-27T04:24:44.172Z,0.40
2019-02-27T04:29:50.138Z,0.40
2019-02-27T04:34:56.229Z,0.40
2019-02-27T04:40:02.486Z,0.30
2019-02-27T04:45:09.867Z,0.20
2019-02-27T04:50:17.514Z,0.30
2019-02-27T04:55:23.595Z,0.30
2019-02-27T05:00:29.698Z,0.20
2019-02-27T05:05:35.843Z,0.20
2019-02-27T05:10:41.999Z,0.20
2019-02-27T05:15:48.125Z,0.30
2019-02-27T05:20:53.858Z,0.20
2019-02-27T05:25:59.923Z,0.20
2019-02-27T05:31:05.995Z,0.10
2019-02-27T05:36:12.077Z,0.20
2019-02-27T05:41:19.149Z,0.10
2019-02-27T05:46:25.332Z,0.10
2019-02-27T05:51:31.541Z,0.00
2019-02-27T05:56:37.612Z,0.00
2019-02-27T06:01:43.697Z,0.00
2019-02-27T06:06:49.861Z,0.10
2019-02-27T06:11:56.020Z,0.10
2019-02-27T06:17:02.103Z,0.10
2019-02-27T06:22:08.200Z,0.10
2019-02-27T06:27:14.343Z,0.10
2019-02-27T06:32:20.511Z,0.10
2019-02-27T06:37:26.611Z,0.20
2019-02-27T06:42:32.732Z,0.20
2019-02-27T06:47:38.745Z,0.30
2019-02-27T06:52:44.882Z,0.40
2019-02-27T06:57:50.890Z,0.60
2019-02-27T07:02:58.015Z,0.70
2019-02-27T07:08:05.098Z,0.90
2019-02-27T07:13:11.494Z,0.90
2019-02-27T07:18:17.641Z,1.00
2019-02-27T07:23:23.869Z,1.30
2019-02-27T07:28:30.979Z,1.40
2019-02-27T07:33:40.647Z,1.50
2019-02-27T07:38:47.280Z,1.60
2019-02-27T07:43:53.349Z,1.90
2019-02-27T07:49:01.456Z,2.00
2019-02-27T07:54:07.254Z,2.30
2019-02-27T07:59:13.358Z,2.40
2019-02-27T08:04:22.108Z,2.60
2019-02-27T08:09:29.950Z,2.90
2019-02-27T08:14:37.201Z,3.20
2019-02-27T08:19:45.014Z,3.50
2019-02-27T08:24:50.454Z,3.90
2019-02-27T08:29:59.718Z,4.30
2019-02-27T08:35:05.557Z,4.60
2019-02-27T08:40:11.658Z,5.00
2019-02-27T08:45:20.035Z,5.40
2019-02-27T08:50:25.637Z,5.70
2019-02-27T08:55:31.716Z,6.10
2019-02-27T09:00:38.635Z,6.60
2019-02-27T09:05:44.699Z,7.20
2019-02-27T09:10:50.769Z,8.30
2019-02-27T09:15:57.871Z,10.30
2019-02-27T09:21:03.866Z,13.70
2019-02-27T09:26:10.024Z,16.70
2019-02-27T09:31:16.164Z,18.20
2019-02-27T09:36:22.263Z,17.90
2019-02-27T09:41:28.423Z,19.00
2019-02-27T09:46:34.530Z,19.60
2019-02-27T09:51:40.596Z,20.70
2019-02-27T09:56:46.667Z,21.20
2019-02-27T10:01:52.827Z,21.90
2019-02-27T10:06:59.006Z,21.80
2019-02-27T10:12:05.136Z,22.40
2019-02-27T10:17:11.388Z,22.00
2019-02-27T10:22:20.152Z,21.80
2019-02-27T10:27:25.498Z,21.90
2019-02-27T10:32:36.454Z,22.00
2019-02-27T10:37:40.878Z,22.20
2019-02-27T10:42:47.092Z,22.80
2019-02-27T10:47:53.191Z,22.10
2019-02-27T10:52:59.338Z,20.10
2019-02-27T10:58:07.539Z,19.00
2019-02-27T11:03:13.237Z,20.90
2019-02-27T11:08:19.305Z,23.50
2019-02-27T11:13:25.455Z,23.10
2019-02-27T11:18:31.645Z,22.20
2019-02-27T11:23:40.944Z,20.10
2019-02-27T11:28:47.722Z,19.60
2019-02-27T11:33:53.453Z,18.30
2019-02-27T11:38:59.953Z,18.30
2019-02-27T11:44:06.101Z,17.30
2019-02-27T11:49:12.133Z,16.30
2019-02-27T11:54:18.145Z,15.80
2019-02-27T11:59:24.232Z,15.30
2019-02-27T12:04:30.385Z,14.90
2019-02-27T12:09:36.599Z,14.70
2019-02-27T12:14:42.718Z,14.60
2019-02-27T12:19:48.727Z,14.60
2019-02-27T12:24:54.799Z,14.60
2019-02-27T12:30:02.854Z,14.50
2019-02-27T12:35:11.728Z,14.50
2019-02-27T12:40:24.051Z,14.60
2019-02-27T12:45:29.577Z,14.80
2019-02-27T12:50:35.201Z,14.60
2019-02-27T12:55:41.223Z,14.70
2019-02-27T13:00:47.274Z,14.60
2019-02-27T13:05:53.317Z,14.40
2019-02-27T13:10:59.543Z,14.50
2019-02-27T13:16:05.611Z,14.40
2019-02-27T13:21:11.700Z,14.20
2019-02-27T13:26:17.763Z,14.30
2019-02-27T13:31:23.806Z,14.70
2019-02-27T13:36:31.600Z,14.50
2019-02-27T13:41:37.617Z,14.00
2019-02-27T13:46:43.686Z,14.20
2019-02-27T13:51:49.836Z,14.00
2019-02-27T13:56:56.025Z,13.80
2019-02-27T14:02:04.000Z,13.70
2019-02-27T14:07:09.831Z,13.30
2019-02-27T14:12:15.991Z,13.00
2019-02-27T14:17:22.061Z,12.90
2019-02-27T14:22:28.117Z,12.80
2019-02-27T14:27:34.167Z,12.60
2019-02-27T14:32:40.290Z,12.70
2019-02-27T14:37:49.575Z,12.80
2019-02-27T14:42:55.077Z,12.70
2019-02-27T14:48:01.383Z,12.70
2019-02-27T14:53:08.507Z,12.80
2019-02-27T14:58:14.461Z,12.50
2019-02-27T15:03:20.566Z,12.20
2019-02-27T15:08:27.792Z,12.00
2019-02-27T15:13:34.001Z,11.90
2019-02-27T15:18:40.560Z,11.70
2019-02-27T15:23:46.807Z,11.50
2019-02-27T15:28:53.055Z,11.30
2019-02-27T15:33:59.412Z,11.20
2019-02-27T15:39:07.941Z,10.90
2019-02-27T15:44:15.782Z,10.70
2019-02-27T15:49:21.858Z,10.70
2019-02-27T15:54:28.015Z,10.50
2019-02-27T15:59:34.380Z,10.20
2019-02-27T16:04:40.411Z,10.00
2019-02-27T16:09:46.486Z,9.80
2019-02-27T16:14:52.622Z,9.60
2019-02-27T16:19:58.782Z,9.50
2019-02-27T16:25:05.195Z,9.30
2019-02-27T16:30:15.278Z,9.10
2019-02-27T16:35:21.436Z,9.00
2019-02-27T16:40:27.722Z,8.70
2019-02-27T16:45:36.644Z,8.50
2019-02-27T16:50:41.830Z,8.20
2019-02-27T16:55:48.231Z,8.00
2019-02-27T17:00:55.563Z,7.80
2019-02-27T17:06:01.842Z,7.70
2019-02-27T17:11:07.984Z,7.50
2019-02-27T17:16:14.192Z,7.40
2019-02-27T17:21:22.680Z,7.20
2019-02-27T17:26:28.113Z,7.00
2019-02-27T17:31:35.530Z,6.80
2019-02-27T17:36:41.715Z,6.70
2019-02-27T17:41:48.778Z,6.50
2019-02-27T17:46:55.581Z,6.40
2019-02-27T17:52:21.280Z,6.30
2019-02-27T17:57:31.101Z,6.10
2019-02-27T18:02:37.428Z,6.00
2019-02-27T18:07:43.578Z,5.90
2019-02-27T18:12:51.574Z,5.80
2019-02-27T18:17:58.759Z,5.60
2019-02-27T18:23:04.971Z,5.40
2019-02-27T18:28:11.336Z,5.30
2019-02-27T18:33:17.515Z,5.30
2019-02-27T18:38:27.533Z,5.20
2019-02-27T18:43:31.860Z,5.10
2019-02-27T18:48:43.561Z,5.00
2019-02-27T18:53:48.366Z,5.00
2019-02-27T18:58:55.592Z,4.80
2019-02-27T19:04:02.541Z,4.80
2019-02-27T19:09:10.427Z,4.60
2019-02-27T19:14:18.221Z,4.50
2019-02-27T19:19:24.580Z,4.40
2019-02-27T19:24:32.459Z,4.40
2019-02-27T19:29:38.868Z,4.30
2019-02-27T19:34:47.947Z,4.30
2019-02-27T19:39:53.430Z,4.10
2019-02-27T19:45:04.389Z,4.10
2019-02-27T19:50:11.205Z,4.00
2019-02-27T19:55:16.349Z,3.90
2019-02-27T20:00:24.146Z,3.90
2019-02-27T20:05:30.441Z,3.80
2019-02-27T20:10:36.692Z,3.70
2019-02-27T20:15:45.739Z,3.50
2019-02-27T20:20:50.601Z,3.40
2019-02-27T20:25:56.697Z,3.40
2019-02-27T20:31:02.656Z,3.40
2019-02-27T20:36:08.703Z,3.30
2019-02-27T20:41:15.161Z,3.30
2019-02-27T20:46:21.257Z,3.20
2019-02-27T20:51:27.313Z,3.10
2019-02-27T20:56:35.981Z,3.00
2019-02-27T21:01:46.698Z,3.00
2019-02-27T21:06:49.020Z,3.00
2019-02-27T21:11:55.197Z,2.90
2019-02-27T21:17:01.387Z,2.90
2019-02-27T21:22:07.494Z,2.90
2019-02-27T21:27:13.625Z,2.80
2019-02-27T21:32:19.820Z,2.80
2019-02-27T21:37:25.875Z,2.90
2019-02-27T21:42:32.791Z,2.90
2019-02-27T21:47:38.844Z,3.00
2019-02-27T21:52:44.982Z,2.90
2019-02-27T21:57:51.181Z,3.00
2019-02-27T22:02:57.391Z,3.00
2019-02-27T22:08:05.440Z,3.00
2019-02-27T22:13:11.640Z,3.10
2019-02-27T22:18:17.644Z,3.00
2019-02-27T22:23:23.827Z,3.10
2019-02-27T22:28:29.934Z,3.00
2019-02-27T22:33:36.089Z,2.90
2019-02-27T22:38:43.111Z,2.90
2019-02-27T22:43:49.250Z,3.00
2019-02-27T22:48:55.431Z,2.90
2019-02-27T22:54:02.259Z,2.90
2019-02-27T22:59:08.952Z,3.00
2019-02-27T23:04:15.239Z,3.00
2019-02-27T23:09:25.573Z,3.00
2019-02-27T23:14:30.228Z,3.00
2019-02-27T23:19:36.310Z,3.00
2019-02-27T23:24:43.914Z,3.00
2019-02-27T23:29:50.188Z,3.10
2019-02-27T23:34:56.360Z,3.10
2019-02-27T23:40:02.585Z,3.20
2019-02-27T23:45:10.915Z,3.20
2019-02-27T23:50:17.196Z,3.20
2019-02-27T23:55:23.417Z,3.30
